createdAt,value
2022-08-16T00:00:38.374Z,82.93
2022-08-16T00:05:48.591Z,83.47
2022-08-16T00:10:53.412Z,83.45
2022-08-16T00:15:57.869Z,84.46
2022-08-16T00:21:01.081Z,84.74
2022-08-16T00:26:35.345Z,85.24
2022-08-16T00:31:59.352Z,84.40
2022-08-16T00:36:56.278Z,82.42
2022-08-16T00:42:01.661Z,82.48
2022-08-16T00:47:11.113Z,83.40
2022-08-16T00:52:29.777Z,82.85
2022-08-16T00:57:58.302Z,82.22
2022-08-16T01:03:00.915Z,82.63
2022-08-16T01:08:35.026Z,83.29
2022-08-16T01:13:33.954Z,83.14
2022-08-16T01:18:45.273Z,83.42
2022-08-16T01:23:58.214Z,83.26
2022-08-16T01:29:09.911Z,82.52
2022-08-16T01:34:25.333Z,82.25
2022-08-16T01:39:35.458Z,82.85
2022-08-16T01:44:42.402Z,82.74
2022-08-16T01:50:42.483Z,82.13
2022-08-16T01:55:12.177Z,82.76
2022-08-16T02:00:19.949Z,82.24
2022-08-16T02:05:23.817Z,83.45
2022-08-16T02:10:28.850Z,84.51
2022-08-16T02:15:38.738Z,82.52
2022-08-16T02:20:53.514Z,85.05
2022-08-16T02:25:59.551Z,84.74
2022-08-16T02:31:07.547Z,84.86
2022-08-16T02:36:48.181Z,84.12
2022-08-16T02:41:43.026Z,83.64
2022-08-16T02:46:49.945Z,82.97
2022-08-16T02:51:54.711Z,83.46
2022-08-16T02:56:59.440Z,84.74
2022-08-16T03:02:08.837Z,85.97
2022-08-16T03:07:14.521Z,84.83
2022-08-16T03:12:30.152Z,85.32
2022-08-16T03:17:35.248Z,84.96
2022-08-16T03:22:39.324Z,85.94
2022-08-16T03:27:52.802Z,85.21
2022-08-16T03:32:57.540Z,86.57
2022-08-16T03:38:32.821Z,89.07
2022-08-16T03:43:51.085Z,88.23
2022-08-16T03:48:57.593Z,87.66
2022-08-16T03:54:01.705Z,90.88
2022-08-16T03:59:09.009Z,89.96
2022-08-16T04:04:25.156Z,93.94
2022-08-16T04:09:38.239Z,91.94
2022-08-16T04:14:46.863Z,91.04
2022-08-16T04:19:54.891Z,89.56
2022-08-16T04:25:02.262Z,87.18
2022-08-16T04:30:32.469Z,89.72
2022-08-16T04:35:39.546Z,89.31
2022-08-16T04:40:44.770Z,91.09
2022-08-16T04:46:00.190Z,89.93
2022-08-16T04:51:07.972Z,89.43
2022-08-16T04:56:22.092Z,91.44
2022-08-16T05:01:56.093Z,90.72
2022-08-16T05:06:53.317Z,91.01
2022-08-16T05:12:04.532Z,91.18
2022-08-16T05:17:10.371Z,91.31
2022-08-16T05:22:18.316Z,91.26
2022-08-16T05:27:27.788Z,89.86
2022-08-16T05:32:36.607Z,91.15
2022-08-16T05:37:50.636Z,89.06
2022-08-16T05:42:55.643Z,89.55
2022-08-16T05:48:02.596Z,89.05
2022-08-16T05:53:17.443Z,88.05
2022-08-16T05:58:38.354Z,90.83
2022-08-16T06:03:44.416Z,89.94
2022-08-16T06:08:54.677Z,91.02
2022-08-16T06:13:58.569Z,91.78
2022-08-16T06:19:13.250Z,90.74
2022-08-16T06:24:53.621Z,92.33
2022-08-16T06:29:49.981Z,92.96
2022-08-16T06:35:02.270Z,97.75
2022-08-16T06:40:12.924Z,95.41
2022-08-16T06:45:24.250Z,94.29
2022-08-16T06:50:50.280Z,98.11
2022-08-16T06:55:57.238Z,95.09
2022-08-16T07:01:01.277Z,95.31
2022-08-16T07:06:08.778Z,96.23
2022-08-16T07:11:20.791Z,96.65
2022-08-16T07:16:45.209Z,96.62
2022-08-16T07:21:59.104Z,93.43
2022-08-16T07:27:08.517Z,92.92
2022-08-16T07:32:13.347Z,96.70
2022-08-16T07:37:18.549Z,92.08
2022-08-16T07:42:49.265Z,89.01
2022-08-16T07:47:53.516Z,90.05
2022-08-16T07:53:02.004Z,90.11
2022-08-16T07:58:06.916Z,89.98
2022-08-16T08:03:22.460Z,90.46
2022-08-16T08:08:51.701Z,88.27
2022-08-16T08:14:03.091Z,86.70
2022-08-16T08:19:12.363Z,86.55
2022-08-16T08:24:19.753Z,85.61
2022-08-16T08:29:24.774Z,84.83
2022-08-16T08:34:42.070Z,83.02
2022-08-16T08:39:54.655Z,83.85
2022-08-16T08:44:59.599Z,84.28
2022-08-16T08:50:05.186Z,80.89
2022-08-16T08:55:14.729Z,80.07
2022-08-16T09:00:26.845Z,79.48
2022-08-16T09:05:35.922Z,78.49
2022-08-16T09:10:44.639Z,77.12
2022-08-16T09:15:49.235Z,76.61
2022-08-16T09:20:59.550Z,74.95
2022-08-16T09:26:46.035Z,72.54
2022-08-16T09:31:30.738Z,71.81
2022-08-16T09:36:34.401Z,73.16
2022-08-16T09:41:38.923Z,72.32
2022-08-16T09:46:48.065Z,71.45
2022-08-16T09:51:55.612Z,71.03
2022-08-16T09:57:02.967Z,69.49
2022-08-16T10:02:25.965Z,68.02
2022-08-16T10:07:43.970Z,65.54
2022-08-16T10:13:07.970Z,65.12
2022-08-16T10:19:00.390Z,67.32
2022-08-16T10:23:36.736Z,65.87
2022-08-16T10:28:43.405Z,63.61
2022-08-16T10:33:47.152Z,64.73
2022-08-16T10:38:52.064Z,62.93
2022-08-16T10:43:56.741Z,63.92
2022-08-16T10:49:01.038Z,63.02
2022-08-16T10:54:28.807Z,61.65
2022-08-16T10:59:45.932Z,61.86
2022-08-16T11:05:06.246Z,60.83
2022-08-16T11:15:37.047Z,58.96
2022-08-16T11:20:48.599Z,58.77
2022-08-16T11:26:16.658Z,56.74
2022-08-16T11:31:16.946Z,57.87
2022-08-16T11:36:27.430Z,57.01
2022-08-16T11:41:33.451Z,56.18
2022-08-16T11:46:44.392Z,56.66
2022-08-16T11:51:50.111Z,56.59
2022-08-16T11:56:57.046Z,54.20
2022-08-16T12:02:11.570Z,55.71
2022-08-16T12:07:25.734Z,55.14
2022-08-16T12:12:28.879Z,53.97
2022-08-16T12:17:33.831Z,55.37
2022-08-16T12:22:37.392Z,55.94
2022-08-16T12:27:40.890Z,55.73
2022-08-16T12:32:46.118Z,56.43
2022-08-16T12:37:58.705Z,55.89
2022-08-16T12:43:05.334Z,53.88
2022-08-16T12:48:35.522Z,51.77
2022-08-16T12:53:40.160Z,52.01
2022-08-16T12:58:48.637Z,51.47
2022-08-16T13:04:11.365Z,50.50
2022-08-16T13:09:26.330Z,51.11
2022-08-16T13:14:35.277Z,47.88
2022-08-16T13:20:07.097Z,48.60
2022-08-16T13:25:06.306Z,49.26
2022-08-16T13:30:21.839Z,48.55
2022-08-16T13:35:35.422Z,47.58
2022-08-16T13:40:46.000Z,43.42
2022-08-16T13:45:50.458Z,46.22
2022-08-16T13:50:58.709Z,45.49
2022-08-16T13:56:06.977Z,44.94
2022-08-16T14:01:13.878Z,44.00
2022-08-16T14:06:18.821Z,44.53
2022-08-16T14:11:22.122Z,42.36
2022-08-16T14:16:33.540Z,41.14
2022-08-16T14:21:40.946Z,42.05
2022-08-16T14:26:46.492Z,42.92
2022-08-16T14:31:53.717Z,43.46
2022-08-16T14:37:00.717Z,42.31
2022-08-16T14:42:09.103Z,43.01
2022-08-16T14:47:15.128Z,42.51
2022-08-16T14:52:52.051Z,38.62
2022-08-16T14:57:46.436Z,40.98
2022-08-16T15:02:54.149Z,39.04
2022-08-16T15:08:01.058Z,39.37
2022-08-16T15:13:06.502Z,38.60
2022-08-16T15:18:14.609Z,40.57
2022-08-16T15:23:28.758Z,40.44
2022-08-16T15:28:33.712Z,40.89
2022-08-16T15:33:50.755Z,41.31
2022-08-16T15:39:06.774Z,40.42
2022-08-16T15:44:25.624Z,40.12
2022-08-16T15:49:37.195Z,40.08
2022-08-16T15:54:52.552Z,40.68
2022-08-16T16:00:04.918Z,42.68
2022-08-16T16:05:19.655Z,41.89
2022-08-16T16:10:29.927Z,40.27
2022-08-16T16:15:35.950Z,38.10
2022-08-16T16:20:43.667Z,39.58
2022-08-16T16:25:48.681Z,38.10
2022-08-16T16:30:56.931Z,38.21
2022-08-16T16:36:03.917Z,38.51
2022-08-16T16:41:11.496Z,37.36
2022-08-16T16:46:42.074Z,37.65
2022-08-16T16:51:44.753Z,37.86
2022-08-16T16:56:54.315Z,37.94
2022-08-16T17:02:01.436Z,39.53
2022-08-16T17:07:24.347Z,39.95
2022-08-16T17:12:47.231Z,40.93
2022-08-16T17:23:16.261Z,41.62
2022-08-16T17:28:58.482Z,42.62
2022-08-16T17:33:54.748Z,51.50
2022-08-16T17:39:00.093Z,58.79
2022-08-16T17:39:28.150Z,40.98
2022-08-16T17:44:05.746Z,66.09
2022-08-16T17:49:08.852Z,69.04
2022-08-16T17:54:20.285Z,70.53
2022-08-16T17:59:36.960Z,72.34
2022-08-16T18:04:49.318Z,72.89
2022-08-16T18:09:53.096Z,72.64
2022-08-16T18:15:00.170Z,74.07
2022-08-16T18:20:04.346Z,75.77
2022-08-16T18:25:07.991Z,75.87
2022-08-16T18:30:17.658Z,76.86
2022-08-16T18:35:21.751Z,77.50
2022-08-16T18:40:25.035Z,78.76
2022-08-16T18:45:35.614Z,79.99
2022-08-16T18:50:59.681Z,80.47
2022-08-16T18:56:05.159Z,81.59
2022-08-16T19:01:09.729Z,82.94
2022-08-16T19:06:15.215Z,81.32
2022-08-16T19:11:23.356Z,83.17
2022-08-16T19:16:27.741Z,83.54
2022-08-16T19:21:30.820Z,84.20
2022-08-16T19:26:33.953Z,85.07
2022-08-16T19:31:38.410Z,85.59
2022-08-16T19:36:41.428Z,85.88
2022-08-16T19:41:53.027Z,85.65
2022-08-16T19:47:00.755Z,85.94
2022-08-16T19:52:15.033Z,86.00
2022-08-16T19:57:18.425Z,84.54
2022-08-16T20:02:35.633Z,82.61
2022-08-16T20:07:39.563Z,80.13
2022-08-16T20:12:44.126Z,80.77
2022-08-16T20:18:21.266Z,82.07
2022-08-16T20:23:28.358Z,81.55
2022-08-16T20:28:52.086Z,81.21
2022-08-16T20:34:05.958Z,80.91
2022-08-16T20:39:15.257Z,81.22
2022-08-16T20:44:23.022Z,81.72
2022-08-16T20:49:35.574Z,81.96
2022-08-16T20:54:39.203Z,81.92
2022-08-16T20:59:45.605Z,81.48
2022-08-16T21:05:02.089Z,80.43
2022-08-16T21:10:14.624Z,80.01
2022-08-16T21:15:18.172Z,79.65
2022-08-16T21:20:25.405Z,79.62
2022-08-16T21:25:32.222Z,78.76
2022-08-16T21:30:35.829Z,78.50
2022-08-16T21:35:41.274Z,78.24
2022-08-16T21:40:44.556Z,78.66
2022-08-16T21:45:48.788Z,79.61
2022-08-16T21:51:02.446Z,79.96
2022-08-16T21:56:06.774Z,79.57
2022-08-16T22:01:13.638Z,80.34
2022-08-16T22:06:18.183Z,79.03
2022-08-16T22:11:23.224Z,80.48
2022-08-16T22:16:27.284Z,80.83
2022-08-16T22:21:32.869Z,78.74
2022-08-16T22:26:42.827Z,79.10
2022-08-16T22:31:45.942Z,79.51
2022-08-16T22:36:51.096Z,81.00
2022-08-16T22:41:54.590Z,79.38
2022-08-16T22:46:57.775Z,78.97
2022-08-16T22:52:07.281Z,81.34
2022-08-16T22:57:10.826Z,82.18
2022-08-16T23:02:14.942Z,80.73
2022-08-16T23:07:19.608Z,81.46
2022-08-16T23:12:29.195Z,81.65
2022-08-16T23:17:33.757Z,82.28
2022-08-16T23:23:20.983Z,83.78
2022-08-16T23:28:08.112Z,85.39
2022-08-16T23:33:13.494Z,83.94
2022-08-16T23:38:37.665Z,85.13
2022-08-16T23:43:43.553Z,83.39
2022-08-16T23:50:01.304Z,86.05
2022-08-16T23:54:11.844Z,84.93
2022-08-16T23:59:14.843Z,83.18
